sensor_id;sensor_type;location;lat;lon;timestamp;pressure;altitude;pressure_sealevel;temperature;humidity
53340;BME280;46212;50.258;19.062;2022-12-20T00:01:14;99508.88;;;-0.54;79.17
53340;BME280;46212;50.258;19.062;2022-12-20T00:03:41;99501.13;;;-0.55;79.50
53340;BME280;46212;50.258;19.062;2022-12-20T00:06:06;99504.97;;;-0.56;79.75
53340;BME280;46212;50.258;19.062;2022-12-20T00:08:32;99506.38;;;-0.20;79.08
53340;BME280;46212;50.258;19.062;2022-12-20T00:10:59;99507.81;;;-0.49;79.44
53340;BME280;46212;50.258;19.062;2022-12-20T00:13:25;99502.00;;;-0.47;79.49
53340;BME280;46212;50.258;19.062;2022-12-20T00:15:50;99501.91;;;-0.55;79.79
53340;BME280;46212;50.258;19.062;2022-12-20T00:18:15;99496.41;;;-0.58;80.28
53340;BME280;46212;50.258;19.062;2022-12-20T00:20:41;99485.13;;;-0.60;80.11
53340;BME280;46212;50.258;19.062;2022-12-20T00:23:06;99496.13;;;-0.72;80.49
53340;BME280;46212;50.258;19.062;2022-12-20T00:25:31;99501.06;;;-0.36;79.97
53340;BME280;46212;50.258;19.062;2022-12-20T00:27:56;99490.81;;;-0.23;79.19
53340;BME280;46212;50.258;19.062;2022-12-20T00:30:22;99503.84;;;-0.32;79.06
53340;BME280;46212;50.258;19.062;2022-12-20T00:32:47;99487.38;;;-0.43;79.40
53340;BME280;46212;50.258;19.062;2022-12-20T00:35:12;99496.97;;;-0.49;79.77
53340;BME280;46212;50.258;19.062;2022-12-20T00:37:38;99494.25;;;-0.26;79.44
53340;BME280;46212;50.258;19.062;2022-12-20T00:40:04;99484.31;;;-0.41;79.47
53340;BME280;46212;50.258;19.062;2022-12-20T00:42:30;99482.91;;;-0.55;79.99
53340;BME280;46212;50.258;19.062;2022-12-20T00:44:55;99483.09;;;-0.21;79.58
53340;BME280;46212;50.258;19.062;2022-12-20T00:47:20;99486.41;;;-0.31;79.35
53340;BME280;46212;50.258;19.062;2022-12-20T00:49:46;99484.66;;;-0.20;79.29
53340;BME280;46212;50.258;19.062;2022-12-20T00:52:11;99490.94;;;-0.16;78.95
53340;BME280;46212;50.258;19.062;2022-12-20T00:54:36;99474.63;;;0.07;78.78
53340;BME280;46212;50.258;19.062;2022-12-20T00:57:02;99474.81;;;-0.28;79.55
53340;BME280;46212;50.258;19.062;2022-12-20T00:59:27;99465.88;;;-0.06;79.11
53340;BME280;46212;50.258;19.062;2022-12-20T01:01:52;99456.81;;;-0.17;79.24
53340;BME280;46212;50.258;19.062;2022-12-20T01:04:17;99460.53;;;-0.25;79.78
53340;BME280;46212;50.258;19.062;2022-12-20T01:06:43;99438.31;;;-0.08;79.72
53340;BME280;46212;50.258;19.062;2022-12-20T01:09:09;99453.59;;;0.00;78.73
53340;BME280;46212;50.258;19.062;2022-12-20T01:11:35;99447.72;;;-0.02;79.37
53340;BME280;46212;50.258;19.062;2022-12-20T01:14:02;99487.84;;;0.08;79.27
53340;BME280;46212;50.258;19.062;2022-12-20T01:16:30;99500.75;;;-0.08;79.52
53340;BME280;46212;50.258;19.062;2022-12-20T01:18:55;99479.78;;;-0.11;80.18
53340;BME280;46212;50.258;19.062;2022-12-20T01:21:21;99470.06;;;-0.12;80.50
53340;BME280;46212;50.258;19.062;2022-12-20T01:23:47;99479.25;;;-0.20;81.02
53340;BME280;46212;50.258;19.062;2022-12-20T01:26:13;99472.53;;;-0.04;80.99
53340;BME280;46212;50.258;19.062;2022-12-20T01:28:40;99471.31;;;-0.06;80.98
53340;BME280;46212;50.258;19.062;2022-12-20T01:31:09;99461.63;;;-0.07;81.20
53340;BME280;46212;50.258;19.062;2022-12-20T01:33:35;99469.53;;;-0.21;82.17
53340;BME280;46212;50.258;19.062;2022-12-20T01:36:01;99455.00;;;-0.10;82.31
53340;BME280;46212;50.258;19.062;2022-12-20T01:38:27;99463.06;;;-0.13;81.87
53340;BME280;46212;50.258;19.062;2022-12-20T01:40:53;99468.25;;;-0.27;82.38
53340;BME280;46212;50.258;19.062;2022-12-20T01:43:19;99463.00;;;-0.17;82.53
53340;BME280;46212;50.258;19.062;2022-12-20T01:45:45;99444.41;;;-0.15;82.88
53340;BME280;46212;50.258;19.062;2022-12-20T01:48:11;99438.44;;;-0.01;82.29
53340;BME280;46212;50.258;19.062;2022-12-20T01:50:37;99437.31;;;-0.23;82.56
53340;BME280;46212;50.258;19.062;2022-12-20T01:53:03;99438.41;;;-0.27;82.93
53340;BME280;46212;50.258;19.062;2022-12-20T01:55:29;99447.53;;;-0.13;82.97
53340;BME280;46212;50.258;19.062;2022-12-20T01:57:56;99433.00;;;-0.01;82.32
53340;BME280;46212;50.258;19.062;2022-12-20T02:00:22;99435.19;;;-0.10;82.48
53340;BME280;46212;50.258;19.062;2022-12-20T02:02:48;99430.72;;;-0.22;83.10
53340;BME280;46212;50.258;19.062;2022-12-20T02:05:14;99420.41;;;-0.13;83.10
53340;BME280;46212;50.258;19.062;2022-12-20T02:07:39;99422.81;;;-0.08;83.08
53340;BME280;46212;50.258;19.062;2022-12-20T02:10:07;99431.50;;;0.02;82.58
53340;BME280;46212;50.258;19.062;2022-12-20T02:12:39;99435.84;;;0.06;82.33
53340;BME280;46212;50.258;19.062;2022-12-20T02:30:49;99427.00;;;-0.14;83.83
53340;BME280;46212;50.258;19.062;2022-12-20T02:33:17;99408.63;;;0.03;83.06
53340;BME280;46212;50.258;19.062;2022-12-20T02:35:44;99406.75;;;-0.20;84.01
53340;BME280;46212;50.258;19.062;2022-12-20T02:40:54;99400.19;;;-0.41;84.70
53340;BME280;46212;50.258;19.062;2022-12-20T02:43:20;99388.34;;;-0.30;84.50
53340;BME280;46212;50.258;19.062;2022-12-20T02:46:04;99414.66;;;-0.34;84.45
53340;BME280;46212;50.258;19.062;2022-12-20T02:48:31;99416.22;;;-0.33;84.66
53340;BME280;46212;50.258;19.062;2022-12-20T02:50:58;99422.84;;;-0.30;84.56
53340;BME280;46212;50.258;19.062;2022-12-20T02:53:24;99423.03;;;-0.42;85.23
53340;BME280;46212;50.258;19.062;2022-12-20T02:55:52;99401.34;;;-0.42;84.94
53340;BME280;46212;50.258;19.062;2022-12-20T02:58:43;99410.06;;;-0.30;85.03
53340;BME280;46212;50.258;19.062;2022-12-20T03:01:07;99405.31;;;-0.36;84.83
53340;BME280;46212;50.258;19.062;2022-12-20T03:03:35;99400.78;;;-0.29;84.80
53340;BME280;46212;50.258;19.062;2022-12-20T03:06:01;99400.53;;;-0.43;84.93
53340;BME280;46212;50.258;19.062;2022-12-20T03:08:26;99395.31;;;-0.55;85.18
53340;BME280;46212;50.258;19.062;2022-12-20T03:10:52;99393.38;;;-0.32;84.64
53340;BME280;46212;50.258;19.062;2022-12-20T03:13:18;99392.31;;;-0.24;83.60
53340;BME280;46212;50.258;19.062;2022-12-20T03:15:43;99391.75;;;-0.36;84.03
53340;BME280;46212;50.258;19.062;2022-12-20T03:18:09;99407.69;;;-0.31;84.07
53340;BME280;46212;50.258;19.062;2022-12-20T03:20:34;99400.19;;;-0.41;84.37
53340;BME280;46212;50.258;19.062;2022-12-20T03:22:59;99406.88;;;-0.35;84.11
53340;BME280;46212;50.258;19.062;2022-12-20T03:25:24;99403.94;;;-0.49;83.92
53340;BME280;46212;50.258;19.062;2022-12-20T03:27:50;99411.41;;;-0.43;84.46
53340;BME280;46212;50.258;19.062;2022-12-20T03:30:15;99398.03;;;-0.55;84.41
53340;BME280;46212;50.258;19.062;2022-12-20T03:32:40;99389.44;;;-0.57;84.55
53340;BME280;46212;50.258;19.062;2022-12-20T03:35:06;99375.78;;;-0.41;84.57
53340;BME280;46212;50.258;19.062;2022-12-20T03:37:31;99373.06;;;-0.64;84.62
53340;BME280;46212;50.258;19.062;2022-12-20T03:39:56;99369.78;;;-0.50;84.61
53340;BME280;46212;50.258;19.062;2022-12-20T03:42:22;99377.06;;;-0.58;84.22
53340;BME280;46212;50.258;19.062;2022-12-20T03:44:47;99384.09;;;-0.54;84.34
53340;BME280;46212;50.258;19.062;2022-12-20T03:47:12;99401.75;;;-0.63;84.28
53340;BME280;46212;50.258;19.062;2022-12-20T03:49:38;99389.22;;;-0.48;84.33
53340;BME280;46212;50.258;19.062;2022-12-20T03:52:03;99386.09;;;-0.73;84.48
53340;BME280;46212;50.258;19.062;2022-12-20T03:54:28;99382.28;;;-0.69;84.43
53340;BME280;46212;50.258;19.062;2022-12-20T03:56:54;99379.22;;;-0.44;83.90
53340;BME280;46212;50.258;19.062;2022-12-20T03:59:19;99388.22;;;-0.37;83.66
53340;BME280;46212;50.258;19.062;2022-12-20T04:01:44;99386.78;;;-0.54;83.33
53340;BME280;46212;50.258;19.062;2022-12-20T04:04:11;99392.28;;;-0.73;84.44
53340;BME280;46212;50.258;19.062;2022-12-20T04:06:36;99383.88;;;-0.68;84.70
53340;BME280;46212;50.258;19.062;2022-12-20T04:09:01;99385.31;;;-0.74;84.70
53340;BME280;46212;50.258;19.062;2022-12-20T04:11:27;99381.03;;;-0.52;84.27
53340;BME280;46212;50.258;19.062;2022-12-20T04:13:52;99387.66;;;-0.49;83.73
53340;BME280;46212;50.258;19.062;2022-12-20T04:16:22;99393.06;;;-0.49;83.63
53340;BME280;46212;50.258;19.062;2022-12-20T04:18:47;99380.56;;;-0.31;83.36
53340;BME280;46212;50.258;19.062;2022-12-20T04:21:13;99394.19;;;-0.54;83.50
53340;BME280;46212;50.258;19.062;2022-12-20T04:23:38;99390.28;;;-0.53;83.64
53340;BME280;46212;50.258;19.062;2022-12-20T04:26:05;99396.38;;;-0.60;83.95
53340;BME280;46212;50.258;19.062;2022-12-20T04:28:31;99387.81;;;-0.39;83.44
53340;BME280;46212;50.258;19.062;2022-12-20T04:30:56;99383.84;;;-0.45;83.04
53340;BME280;46212;50.258;19.062;2022-12-20T04:33:22;99387.34;;;-0.44;83.03
53340;BME280;46212;50.258;19.062;2022-12-20T04:35:48;99391.63;;;-0.43;82.98
53340;BME280;46212;50.258;19.062;2022-12-20T04:38:13;99396.56;;;-0.49;83.62
53340;BME280;46212;50.258;19.062;2022-12-20T04:40:38;99396.81;;;-0.58;83.58
53340;BME280;46212;50.258;19.062;2022-12-20T04:43:04;99408.41;;;-0.61;83.88
53340;BME280;46212;50.258;19.062;2022-12-20T04:45:29;99408.34;;;-0.64;84.16
53340;BME280;46212;50.258;19.062;2022-12-20T04:47:54;99404.53;;;-0.60;84.00
53340;BME280;46212;50.258;19.062;2022-12-20T04:50:19;99399.59;;;-0.54;83.88
53340;BME280;46212;50.258;19.062;2022-12-20T04:52:45;99402.34;;;-0.50;83.84
53340;BME280;46212;50.258;19.062;2022-12-20T04:55:29;99393.88;;;-0.49;83.66
53340;BME280;46212;50.258;19.062;2022-12-20T04:57:54;99406.34;;;-0.44;83.20
53340;BME280;46212;50.258;19.062;2022-12-20T05:00:19;99385.72;;;-0.49;83.95
53340;BME280;46212;50.258;19.062;2022-12-20T05:02:44;99385.91;;;-0.61;84.35
53340;BME280;46212;50.258;19.062;2022-12-20T05:05:10;99392.53;;;-0.59;84.23
53340;BME280;46212;50.258;19.062;2022-12-20T05:07:35;99381.56;;;-0.66;84.46
53340;BME280;46212;50.258;19.062;2022-12-20T05:10:00;99364.81;;;-0.48;83.99
53340;BME280;46212;50.258;19.062;2022-12-20T05:12:26;99366.06;;;-0.42;84.11
53340;BME280;46212;50.258;19.062;2022-12-20T05:14:51;99348.41;;;-0.56;84.18
53340;BME280;46212;50.258;19.062;2022-12-20T05:17:16;99364.13;;;-0.42;84.06
53340;BME280;46212;50.258;19.062;2022-12-20T05:19:41;99365.22;;;-0.46;84.04
53340;BME280;46212;50.258;19.062;2022-12-20T05:22:08;99355.47;;;-0.51;83.88
53340;BME280;46212;50.258;19.062;2022-12-20T05:24:52;99359.50;;;-0.41;83.74
53340;BME280;46212;50.258;19.062;2022-12-20T05:27:36;99353.72;;;-0.63;84.44
53340;BME280;46212;50.258;19.062;2022-12-20T05:30:01;99361.97;;;-0.56;84.49
53340;BME280;46212;50.258;19.062;2022-12-20T05:32:27;99357.19;;;-0.39;83.85
53340;BME280;46212;50.258;19.062;2022-12-20T05:34:52;99368.50;;;-0.34;83.48
53340;BME280;46212;50.258;19.062;2022-12-20T05:37:17;99358.28;;;-0.44;83.79
53340;BME280;46212;50.258;19.062;2022-12-20T05:39:43;99364.91;;;-0.41;83.99
53340;BME280;46212;50.258;19.062;2022-12-20T05:42:08;99359.06;;;-0.17;83.08
53340;BME280;46212;50.258;19.062;2022-12-20T05:44:33;99366.34;;;-0.47;83.53
53340;BME280;46212;50.258;19.062;2022-12-20T05:46:59;99356.88;;;-0.34;83.61
53340;BME280;46212;50.258;19.062;2022-12-20T05:49:24;99349.13;;;-0.59;84.36
53340;BME280;46212;50.258;19.062;2022-12-20T05:51:49;99358.19;;;-0.51;84.17
53340;BME280;46212;50.258;19.062;2022-12-20T05:54:14;99359.66;;;-0.54;84.24
53340;BME280;46212;50.258;19.062;2022-12-20T05:56:40;99353.78;;;-0.59;84.22
53340;BME280;46212;50.258;19.062;2022-12-20T05:59:05;99351.88;;;-0.32;83.97
53340;BME280;46212;50.258;19.062;2022-12-20T06:01:31;99335.91;;;-0.60;84.60
53340;BME280;46212;50.258;19.062;2022-12-20T06:03:57;99336.31;;;-0.62;84.81
53340;BME280;46212;50.258;19.062;2022-12-20T06:06:22;99348.09;;;-0.50;84.46
53340;BME280;46212;50.258;19.062;2022-12-20T06:08:47;99333.75;;;-0.51;84.11
53340;BME280;46212;50.258;19.062;2022-12-20T06:11:13;99326.97;;;-0.38;83.68
53340;BME280;46212;50.258;19.062;2022-12-20T06:13:38;99324.34;;;-0.57;84.14
53340;BME280;46212;50.258;19.062;2022-12-20T06:16:03;99333.91;;;-0.40;84.10
53340;BME280;46212;50.258;19.062;2022-12-20T06:18:29;99345.03;;;-0.72;84.67
53340;BME280;46212;50.258;19.062;2022-12-20T06:20:54;99335.09;;;-0.64;84.85
53340;BME280;46212;50.258;19.062;2022-12-20T06:23:19;99339.69;;;-0.68;84.65
53340;BME280;46212;50.258;19.062;2022-12-20T06:25:45;99337.28;;;-0.73;85.23
53340;BME280;46212;50.258;19.062;2022-12-20T06:28:10;99335.72;;;-0.74;85.59
53340;BME280;46212;50.258;19.062;2022-12-20T06:30:35;99345.34;;;-0.54;85.03
53340;BME280;46212;50.258;19.062;2022-12-20T06:33:01;99328.84;;;-0.91;85.52
53340;BME280;46212;50.258;19.062;2022-12-20T06:35:27;99345.94;;;-0.64;85.34
53340;BME280;46212;50.258;19.062;2022-12-20T06:37:52;99347.56;;;-0.82;85.60
53340;BME280;46212;50.258;19.062;2022-12-20T06:40:18;99348.13;;;-0.96;86.31
53340;BME280;46212;50.258;19.062;2022-12-20T06:42:43;99344.75;;;-0.89;86.23
53340;BME280;46212;50.258;19.062;2022-12-20T06:45:08;99341.66;;;-0.65;85.45
53340;BME280;46212;50.258;19.062;2022-12-20T06:47:34;99340.13;;;-0.89;85.83
53340;BME280;46212;50.258;19.062;2022-12-20T06:49:59;99340.22;;;-0.82;85.85
53340;BME280;46212;50.258;19.062;2022-12-20T06:52:24;99342.22;;;-0.79;85.88
53340;BME280;46212;50.258;19.062;2022-12-20T06:54:50;99346.75;;;-0.86;86.11
53340;BME280;46212;50.258;19.062;2022-12-20T06:57:15;99344.56;;;-0.77;85.86
53340;BME280;46212;50.258;19.062;2022-12-20T06:59:40;99341.47;;;-0.53;85.50
53340;BME280;46212;50.258;19.062;2022-12-20T07:02:05;99351.59;;;-0.50;84.86
53340;BME280;46212;50.258;19.062;2022-12-20T07:04:31;99344.63;;;-0.74;85.37
53340;BME280;46212;50.258;19.062;2022-12-20T07:06:56;99350.53;;;-0.68;85.46
53340;BME280;46212;50.258;19.062;2022-12-20T07:09:21;99356.47;;;-0.59;85.23
53340;BME280;46212;50.258;19.062;2022-12-20T07:11:47;99360.72;;;-0.62;85.20
53340;BME280;46212;50.258;19.062;2022-12-20T07:14:12;99360.84;;;-0.77;85.63
53340;BME280;46212;50.258;19.062;2022-12-20T07:16:38;99354.25;;;-0.54;85.27
53340;BME280;46212;50.258;19.062;2022-12-20T07:19:05;99364.00;;;-0.49;85.22
53340;BME280;46212;50.258;19.062;2022-12-20T07:21:30;99354.41;;;-0.43;84.90
53340;BME280;46212;50.258;19.062;2022-12-20T07:23:56;99356.19;;;-0.28;84.00
53340;BME280;46212;50.258;19.062;2022-12-20T07:26:21;99359.22;;;-0.33;84.36
53340;BME280;46212;50.258;19.062;2022-12-20T07:28:46;99354.75;;;-0.48;84.78
53340;BME280;46212;50.258;19.062;2022-12-20T07:31:11;99349.06;;;-0.39;84.97
53340;BME280;46212;50.258;19.062;2022-12-20T07:33:37;99353.38;;;-0.09;83.99
53340;BME280;46212;50.258;19.062;2022-12-20T07:36:03;99352.59;;;-0.09;83.45
53340;BME280;46212;50.258;19.062;2022-12-20T07:38:29;99358.41;;;-0.11;83.53
53340;BME280;46212;50.258;19.062;2022-12-20T07:40:55;99358.84;;;-0.05;83.36
53340;BME280;46212;50.258;19.062;2022-12-20T07:43:20;99353.66;;;-0.17;83.79
53340;BME280;46212;50.258;19.062;2022-12-20T07:45:45;99348.16;;;-0.21;84.18
53340;BME280;46212;50.258;19.062;2022-12-20T07:48:11;99354.50;;;-0.13;84.21
53340;BME280;46212;50.258;19.062;2022-12-20T07:50:36;99348.41;;;-0.03;83.58
53340;BME280;46212;50.258;19.062;2022-12-20T07:53:02;99337.69;;;0.08;83.09
53340;BME280;46212;50.258;19.062;2022-12-20T07:55:30;99331.34;;;0.26;82.78
53340;BME280;46212;50.258;19.062;2022-12-20T07:57:56;99333.34;;;0.33;82.20
53340;BME280;46212;50.258;19.062;2022-12-20T08:00:24;99335.25;;;0.29;82.46
53340;BME280;46212;50.258;19.062;2022-12-20T08:02:52;99330.97;;;0.28;82.79
53340;BME280;46212;50.258;19.062;2022-12-20T08:05:19;99333.84;;;0.42;81.96
53340;BME280;46212;50.258;19.062;2022-12-20T08:07:45;99330.56;;;0.59;81.32
53340;BME280;46212;50.258;19.062;2022-12-20T08:10:11;99330.59;;;0.63;80.94
53340;BME280;46212;50.258;19.062;2022-12-20T08:12:38;99320.75;;;0.51;81.28
53340;BME280;46212;50.258;19.062;2022-12-20T08:15:04;99327.66;;;0.78;80.63
53340;BME280;46212;50.258;19.062;2022-12-20T08:17:30;99342.00;;;0.75;80.62
53340;BME280;46212;50.258;19.062;2022-12-20T08:19:55;99320.75;;;0.51;80.75
53340;BME280;46212;50.258;19.062;2022-12-20T08:22:21;99337.44;;;0.49;81.43
53340;BME280;46212;50.258;19.062;2022-12-20T08:24:47;99327.75;;;0.52;81.56
53340;BME280;46212;50.258;19.062;2022-12-20T08:27:12;99335.09;;;0.48;80.81
53340;BME280;46212;50.258;19.062;2022-12-20T08:29:37;99342.22;;;0.60;80.55
53340;BME280;46212;50.258;19.062;2022-12-20T08:32:03;99343.34;;;0.92;81.36
53340;BME280;46212;50.258;19.062;2022-12-20T08:34:28;99328.03;;;0.77;80.31
53340;BME280;46212;50.258;19.062;2022-12-20T08:36:54;99330.47;;;0.85;79.67
53340;BME280;46212;50.258;19.062;2022-12-20T08:39:19;99330.75;;;0.77;79.82
53340;BME280;46212;50.258;19.062;2022-12-20T08:41:44;99333.06;;;1.15;79.07
53340;BME280;46212;50.258;19.062;2022-12-20T08:44:09;99337.88;;;1.32;77.87
53340;BME280;46212;50.258;19.062;2022-12-20T08:46:35;99330.56;;;1.43;77.17
53340;BME280;46212;50.258;19.062;2022-12-20T08:49:01;99319.34;;;1.48;77.10
53340;BME280;46212;50.258;19.062;2022-12-20T08:51:26;99310.88;;;1.60;76.90
53340;BME280;46212;50.258;19.062;2022-12-20T08:53:53;99303.66;;;1.89;76.22
53340;BME280;46212;50.258;19.062;2022-12-20T08:56:18;99306.63;;;1.63;76.23
53340;BME280;46212;50.258;19.062;2022-12-20T08:58:45;99313.66;;;1.68;76.31
53340;BME280;46212;50.258;19.062;2022-12-20T09:01:11;99320.00;;;1.86;75.18
53340;BME280;46212;50.258;19.062;2022-12-20T09:03:37;99321.72;;;2.22;74.87
53340;BME280;46212;50.258;19.062;2022-12-20T09:06:13;99315.28;;;2.65;73.39
53340;BME280;46212;50.258;19.062;2022-12-20T09:08:39;99318.41;;;2.75;72.87
53340;BME280;46212;50.258;19.062;2022-12-20T09:11:12;99318.00;;;2.65;73.00
53340;BME280;46212;50.258;19.062;2022-12-20T09:13:38;99320.34;;;2.71;71.99
53340;BME280;46212;50.258;19.062;2022-12-20T09:16:04;99309.31;;;2.28;72.60
53340;BME280;46212;50.258;19.062;2022-12-20T09:18:30;99311.38;;;2.59;73.00
53340;BME280;46212;50.258;19.062;2022-12-20T09:20:58;99301.19;;;2.42;72.57
53340;BME280;46212;50.258;19.062;2022-12-20T09:23:23;99298.47;;;2.49;73.03
53340;BME280;46212;50.258;19.062;2022-12-20T09:25:49;99303.78;;;2.14;72.70
53340;BME280;46212;50.258;19.062;2022-12-20T09:28:14;99287.69;;;1.81;74.37
53340;BME280;46212;50.258;19.062;2022-12-20T09:30:39;99284.75;;;2.18;73.77
53340;BME280;46212;50.258;19.062;2022-12-20T09:33:04;99297.97;;;2.16;73.91
53340;BME280;46212;50.258;19.062;2022-12-20T09:35:30;99302.16;;;1.99;74.28
53340;BME280;46212;50.258;19.062;2022-12-20T09:37:57;99305.66;;;1.96;74.90
53340;BME280;46212;50.258;19.062;2022-12-20T09:40:23;99310.13;;;2.43;72.91
53340;BME280;46212;50.258;19.062;2022-12-20T09:42:49;99295.56;;;2.03;73.35
53340;BME280;46212;50.258;19.062;2022-12-20T09:45:28;99286.72;;;2.28;73.43
53340;BME280;46212;50.258;19.062;2022-12-20T09:47:53;99282.94;;;2.64;72.26
53340;BME280;46212;50.258;19.062;2022-12-20T09:50:19;99282.91;;;2.60;72.81
53340;BME280;46212;50.258;19.062;2022-12-20T09:52:47;99275.19;;;2.87;71.49
53340;BME280;46212;50.258;19.062;2022-12-20T09:55:22;99270.91;;;3.00;70.73
53340;BME280;46212;50.258;19.062;2022-12-20T10:00:19;99251.00;;;3.49;68.83
53340;BME280;46212;50.258;19.062;2022-12-20T10:02:45;99244.00;;;3.45;67.98
53340;BME280;46212;50.258;19.062;2022-12-20T10:05:14;99243.63;;;3.00;69.74
53340;BME280;46212;50.258;19.062;2022-12-20T10:10:40;99251.41;;;3.34;68.77
53340;BME280;46212;50.258;19.062;2022-12-20T10:13:34;99251.03;;;3.10;69.35
53340;BME280;46212;50.258;19.062;2022-12-20T10:16:39;99261.16;;;3.24;69.19
53340;BME280;46212;50.258;19.062;2022-12-20T10:21:54;99258.03;;;2.90;69.99
53340;BME280;46212;50.258;19.062;2022-12-20T10:24:28;99252.56;;;2.80;69.77
53340;BME280;46212;50.258;19.062;2022-12-20T10:26:54;99230.75;;;2.80;70.13
53340;BME280;46212;50.258;19.062;2022-12-20T10:29:21;99231.53;;;2.80;70.15
53340;BME280;46212;50.258;19.062;2022-12-20T10:31:49;99236.22;;;3.15;69.16
53340;BME280;46212;50.258;19.062;2022-12-20T10:34:15;99236.59;;;3.24;69.05
53340;BME280;46212;50.258;19.062;2022-12-20T10:36:40;99235.06;;;3.09;70.05
53340;BME280;46212;50.258;19.062;2022-12-20T10:39:06;99228.41;;;2.89;70.36
53340;BME280;46212;50.258;19.062;2022-12-20T10:41:33;99231.09;;;2.43;71.75
53340;BME280;46212;50.258;19.062;2022-12-20T10:46:40;99218.59;;;2.28;72.55
53340;BME280;46212;50.258;19.062;2022-12-20T10:51:50;99214.69;;;2.22;73.11
53340;BME280;46212;50.258;19.062;2022-12-20T10:54:22;99206.47;;;2.07;73.46
53340;BME280;46212;50.258;19.062;2022-12-20T10:57:33;99211.59;;;2.44;72.51
53340;BME280;46212;50.258;19.062;2022-12-20T10:59:35;99196.47;;;2.50;72.02
53340;BME280;46212;50.258;19.062;2022-12-20T11:02:01;99195.69;;;2.53;71.89
53340;BME280;46212;50.258;19.062;2022-12-20T11:04:34;99190.19;;;2.36;72.43
53340;BME280;46212;50.258;19.062;2022-12-20T11:07:00;99192.91;;;2.36;72.45
53340;BME280;46212;50.258;19.062;2022-12-20T11:09:36;99183.22;;;2.52;71.98
53340;BME280;46212;50.258;19.062;2022-12-20T11:14:31;99180.06;;;2.54;71.55
53340;BME280;46212;50.258;19.062;2022-12-20T11:16:57;99156.72;;;2.74;71.55
53340;BME280;46212;50.258;19.062;2022-12-20T11:27:08;99160.25;;;2.82;70.95
53340;BME280;46212;50.258;19.062;2022-12-20T11:44:53;99150.53;;;4.61;64.73
53340;BME280;46212;50.258;19.062;2022-12-20T11:52:34;99132.16;;;4.07;65.77
53340;BME280;46212;50.258;19.062;2022-12-20T11:55:03;99141.78;;;4.25;65.03
53340;BME280;46212;50.258;19.062;2022-12-20T11:57:33;99137.28;;;3.98;65.72
53340;BME280;46212;50.258;19.062;2022-12-20T12:00:00;99156.53;;;3.66;66.72
53340;BME280;46212;50.258;19.062;2022-12-20T12:02:27;99154.25;;;3.54;67.61
53340;BME280;46212;50.258;19.062;2022-12-20T12:05:04;99144.16;;;3.37;67.66
53340;BME280;46212;50.258;19.062;2022-12-20T12:07:30;99150.47;;;3.09;68.26
53340;BME280;46212;50.258;19.062;2022-12-20T12:12:41;99154.75;;;2.96;69.54
53340;BME280;46212;50.258;19.062;2022-12-20T12:20:18;99150.50;;;2.59;70.76
53340;BME280;46212;50.258;19.062;2022-12-20T12:22:45;99136.44;;;2.54;71.11
53340;BME280;46212;50.258;19.062;2022-12-20T12:25:14;99142.72;;;2.72;70.79
53340;BME280;46212;50.258;19.062;2022-12-20T12:27:41;99140.34;;;2.67;70.96
53340;BME280;46212;50.258;19.062;2022-12-20T12:30:10;99141.16;;;2.53;71.54
53340;BME280;46212;50.258;19.062;2022-12-20T12:32:37;99127.88;;;2.48;71.68
53340;BME280;46212;50.258;19.062;2022-12-20T12:45:12;99113.09;;;2.21;72.70
53340;BME280;46212;50.258;19.062;2022-12-20T12:47:42;99113.06;;;2.10;73.26
53340;BME280;46212;50.258;19.062;2022-12-20T12:50:31;99112.31;;;2.21;73.29
53340;BME280;46212;50.258;19.062;2022-12-20T12:52:56;99115.41;;;2.12;73.38
53340;BME280;46212;50.258;19.062;2022-12-20T12:58:13;99104.47;;;1.94;74.30
53340;BME280;46212;50.258;19.062;2022-12-20T13:00:55;99106.06;;;2.13;73.36
53340;BME280;46212;50.258;19.062;2022-12-20T13:11:28;99110.38;;;2.46;72.16
53340;BME280;46212;50.258;19.062;2022-12-20T13:16:36;99096.34;;;2.16;72.98
53340;BME280;46212;50.258;19.062;2022-12-20T13:19:09;99094.78;;;2.11;73.61
53340;BME280;46212;50.258;19.062;2022-12-20T13:21:35;99094.00;;;2.14;73.51
53340;BME280;46212;50.258;19.062;2022-12-20T13:26:51;99095.50;;;1.94;73.73
53340;BME280;46212;50.258;19.062;2022-12-20T13:29:24;99101.31;;;1.78;75.21
53340;BME280;46212;50.258;19.062;2022-12-20T13:31:50;99098.25;;;1.87;74.69
53340;BME280;46212;50.258;19.062;2022-12-20T13:37:00;99125.47;;;1.94;74.87
53340;BME280;46212;50.258;19.062;2022-12-20T13:44:40;99109.03;;;1.62;75.90
53340;BME280;46212;50.258;19.062;2022-12-20T13:49:36;99124.59;;;1.65;75.45
53340;BME280;46212;50.258;19.062;2022-12-20T13:52:44;99114.16;;;1.71;75.27
53340;BME280;46212;50.258;19.062;2022-12-20T13:54:52;99117.25;;;1.73;75.63
53340;BME280;46212;50.258;19.062;2022-12-20T13:57:28;99124.22;;;1.67;75.22
53340;BME280;46212;50.258;19.062;2022-12-20T13:59:55;99124.63;;;1.62;75.70
53340;BME280;46212;50.258;19.062;2022-12-20T14:02:22;99112.47;;;1.41;76.02
53340;BME280;46212;50.258;19.062;2022-12-20T14:05:12;99112.84;;;1.43;76.19
53340;BME280;46212;50.258;19.062;2022-12-20T14:07:36;99129.34;;;1.82;75.42
53340;BME280;46212;50.258;19.062;2022-12-20T14:10:03;99109.06;;;1.66;75.67
53340;BME280;46212;50.258;19.062;2022-12-20T14:12:29;99112.22;;;1.82;75.85
53340;BME280;46212;50.258;19.062;2022-12-20T14:14:55;99105.97;;;1.71;75.42
53340;BME280;46212;50.258;19.062;2022-12-20T14:17:27;99105.13;;;1.56;76.44
53340;BME280;46212;50.258;19.062;2022-12-20T14:20:28;99114.03;;;1.39;77.21
53340;BME280;46212;50.258;19.062;2022-12-20T14:25:17;99105.25;;;0.98;78.79
53340;BME280;46212;50.258;19.062;2022-12-20T14:27:45;99108.09;;;1.23;78.46
53340;BME280;46212;50.258;19.062;2022-12-20T14:33:14;99119.34;;;1.14;78.07
53340;BME280;46212;50.258;19.062;2022-12-20T14:35:46;99122.06;;;1.14;78.43
53340;BME280;46212;50.258;19.062;2022-12-20T14:38:18;99116.13;;;0.98;79.16
53340;BME280;46212;50.258;19.062;2022-12-20T14:40:44;99108.16;;;1.30;78.21
53340;BME280;46212;50.258;19.062;2022-12-20T14:43:23;99119.63;;;1.02;79.01
53340;BME280;46212;50.258;19.062;2022-12-20T14:46:04;99111.06;;;0.96;79.18
53340;BME280;46212;50.258;19.062;2022-12-20T14:48:30;99109.22;;;1.15;78.98